Time;durP1;ratioP1;P1;durP2;ratioP2;P2;SDS_P1;SDS_P2;PMS_P1;PMS_P2;Temp;Humidity;BMP_temperature;BMP_pressure;BME280_temperature;BME280_humidity;BME280_pressure;Samples;Min_cycle;Max_cycle;Signal;HPM_P1;HPM_P2
2023/08/18 00:00:25;;;;;;;8.10;4.82;;;;;;;-143.21;50.63;71033.25;5056777;28;20278;-81
2023/08/18 00:02:52;;;;;;;7.90;5.22;;;;;;;-143.21;50.45;71043.16;5055894;28;20212;-80
2023/08/18 00:05:19;;;;;;;9.23;5.05;;;;;;;-143.21;50.51;71047.13;5057996;28;20221;-80
2023/08/18 00:07:47;;;;;;;12.57;5.47;;;;;;;-143.21;50.40;71047.13;5062296;28;20327;-80
2023/08/18 00:10:14;;;;;;;7.10;4.80;;;;;;;-143.21;50.46;71047.13;5057597;28;20679;-79
2023/08/18 00:12:41;;;;;;;11.40;5.00;;;;;;;-143.21;50.10;71053.06;5066003;28;20209;-81
2023/08/18 00:15:08;;;;;;;6.35;4.80;;;;;;;-143.21;50.27;71041.16;5055700;28;20202;-83
2023/08/18 00:17:35;;;;;;;7.03;4.95;;;;;;;-143.21;50.36;71041.16;5034910;28;20876;-81
2023/08/18 00:20:02;;;;;;;6.35;4.75;;;;;;;-143.21;50.13;71049.09;5044015;28;20213;-81
2023/08/18 00:22:29;;;;;;;8.90;4.80;;;;;;;-143.21;50.33;71035.22;5055836;28;20578;-80
2023/08/18 00:24:57;;;;;;;9.43;4.78;;;;;;;-143.21;50.23;71033.25;5063590;28;20257;-80
2023/08/18 00:27:24;;;;;;;7.65;4.93;;;;;;;-143.21;50.23;71025.31;5060502;28;20210;-80
2023/08/18 00:29:51;;;;;;;11.02;4.75;;;;;;;-143.21;50.15;71023.34;5057084;28;20286;-80
2023/08/18 00:32:18;;;;;;;9.50;4.55;;;;;;;-143.21;49.99;71031.25;5055548;28;20197;-80
2023/08/18 00:34:45;;;;;;;11.90;4.75;;;;;;;-143.21;50.10;71035.22;5056333;28;20202;-80
2023/08/18 00:37:13;;;;;;;9.68;4.70;;;;;;;-143.21;50.33;71037.22;5059936;28;20205;-79
2023/08/18 00:39:39;;;;;;;6.38;4.93;;;;;;;-143.21;50.37;71037.22;5060583;28;20265;-84
2023/08/18 00:42:08;;;;;;;7.28;4.80;;;;;;;-143.21;50.50;71035.22;5053257;28;20220;-84
2023/08/18 00:44:35;;;;;;;8.18;5.20;;;;;;;-143.21;50.60;71043.16;5062796;28;20244;-84
2023/08/18 00:47:02;;;;;;;7.20;4.85;;;;;;;-143.21;50.43;71049.09;5064048;28;20201;-84
2023/08/18 00:49:29;;;;;;;8.18;4.95;;;;;;;-143.21;50.28;71055.06;5057876;28;20206;-84
2023/08/18 00:52:03;;;;;;;7.60;4.70;;;;;;;-143.21;50.78;71059.00;5062564;28;20687;-84
2023/08/18 00:54:31;;;;;;;8.68;5.35;;;;;;;-143.21;50.78;71064.97;5064470;28;20232;-84
2023/08/18 00:56:58;;;;;;;8.90;5.25;;;;;;;-143.21;50.73;71059.00;5066996;28;20216;-84
2023/08/18 00:59:27;;;;;;;7.63;5.00;;;;;;;-143.21;51.01;71068.94;5060915;28;20198;-80
2023/08/18 01:01:53;;;;;;;6.65;4.85;;;;;;;-143.21;50.81;71057.03;5055711;28;20594;-81
2023/08/18 01:04:20;;;;;;;7.78;4.30;;;;;;;-143.21;50.64;71055.06;5062285;28;20209;-81
2023/08/18 01:06:47;;;;;;;7.22;5.00;;;;;;;-143.21;50.68;71057.03;5063539;28;20216;-80
2023/08/18 01:09:15;;;;;;;7.82;4.70;;;;;;;-143.21;50.81;71053.06;5067604;28;20671;-80
2023/08/18 01:11:56;;;;;;;8.93;5.10;;;;;;;-143.21;50.89;71066.94;5050319;28;20213;-80
2023/08/18 01:14:37;;;;;;;8.02;4.85;;;;;;;-143.21;51.06;71072.88;5065557;28;20202;-80
2023/08/18 01:17:12;;;;;;;9.25;5.13;;;;;;;-143.21;51.21;71074.88;5054652;28;20676;-80
2023/08/18 01:19:39;;;;;;;6.30;4.95;;;;;;;-143.21;51.21;71088.75;5064235;28;20265;-80
2023/08/18 01:22:11;;;;;;;9.43;5.30;;;;;;;-143.21;51.15;71084.78;5053790;28;20323;-80
2023/08/18 01:24:40;;;;;;;9.02;5.35;;;;;;;-143.21;51.61;71092.72;5061713;28;20214;-81
2023/08/18 01:27:07;;;;;;;8.88;4.97;;;;;;;-143.21;51.92;71094.69;5060771;28;20212;-80
2023/08/18 01:29:34;;;;;;;8.48;5.30;;;;;;;-143.21;52.00;71096.69;5060285;28;20214;-79
2023/08/18 01:32:03;;;;;;;8.85;5.55;;;;;;;-143.21;51.95;71098.66;5063362;28;20815;-80
2023/08/18 01:34:33;;;;;;;14.93;5.07;;;;;;;-143.21;51.94;71102.63;5065237;28;20262;-80
2023/08/18 01:37:02;;;;;;;9.40;5.60;;;;;;;-143.21;52.36;71106.59;5057596;28;20209;-80
2023/08/18 01:39:31;;;;;;;10.48;6.00;;;;;;;-143.21;52.36;71102.63;5058668;28;20210;-79
2023/08/18 01:41:59;;;;;;;12.40;5.88;;;;;;;-143.21;52.01;71098.66;5055657;28;20216;-80
2023/08/18 01:44:26;;;;;;;9.95;5.20;;;;;;;-143.21;52.41;71100.66;5063140;28;20202;-79
2023/08/18 01:46:53;;;;;;;8.77;5.10;;;;;;;-143.21;52.49;71112.53;5055745;28;20202;-79
2023/08/18 01:49:20;;;;;;;8.77;5.47;;;;;;;-143.21;52.62;71108.56;5060153;28;20205;-78
2023/08/18 01:51:47;;;;;;;10.95;6.18;;;;;;;-143.21;52.72;71122.44;5059942;28;20201;-78
2023/08/18 01:54:14;;;;;;;10.63;5.63;;;;;;;-143.21;52.62;71132.38;5055455;28;20241;-78
2023/08/18 01:56:41;;;;;;;10.60;5.60;;;;;;;-143.21;52.85;71130.38;5067219;28;20285;-79
2023/08/18 01:59:09;;;;;;;8.27;5.50;;;;;;;-143.21;53.16;71136.31;5056232;28;20213;-78
2023/08/18 02:01:36;;;;;;;10.30;5.70;;;;;;;-143.21;52.78;71136.31;5059761;28;20216;-78
2023/08/18 02:04:03;;;;;;;10.13;5.50;;;;;;;-143.21;53.28;71140.28;5056316;28;20201;-78
2023/08/18 02:06:31;;;;;;;11.57;5.70;;;;;;;-143.21;53.38;71144.25;5061644;28;20226;-78
2023/08/18 02:08:58;;;;;;;9.63;5.85;;;;;;;-143.21;53.30;71138.31;5054396;28;20336;-78
2023/08/18 02:11:24;;;;;;;10.75;5.57;;;;;;;-143.21;53.41;71138.31;5058133;28;20202;-84
2023/08/18 02:13:51;;;;;;;10.63;5.82;;;;;;;-143.21;53.09;71134.34;5059231;28;20206;-84
2023/08/18 02:16:19;;;;;;;6.10;5.32;;;;;;;-143.21;53.34;71134.34;5060631;28;20206;-83
2023/08/18 02:18:47;;;;;;;13.07;6.03;;;;;;;-143.21;53.44;71130.38;5054584;28;20205;-83
2023/08/18 02:21:14;;;;;;;8.57;5.57;;;;;;;-143.21;53.10;71118.50;5067466;28;20652;-83
2023/08/18 02:23:41;;;;;;;11.27;5.90;;;;;;;-143.21;53.15;71122.44;5062464;28;20770;-84
2023/08/18 02:26:08;;;;;;;7.82;5.18;;;;;;;-143.21;53.17;71128.41;5057000;28;20233;-79
2023/08/18 02:28:35;;;;;;;11.63;6.18;;;;;;;-143.21;53.72;71140.28;5066126;28;20206;-79
2023/08/18 02:31:03;;;;;;;8.77;5.78;;;;;;;-143.21;53.66;71146.25;5062304;28;20209;-79
2023/08/18 02:33:33;;;;;;;10.60;5.40;;;;;;;-143.21;53.88;71154.16;5067833;28;20201;-80
2023/08/18 02:36:00;;;;;;;9.63;5.95;;;;;;;-143.21;54.22;71160.13;5062908;28;20198;-79
2023/08/18 02:38:27;;;;;;;9.38;5.68;;;;;;;-143.21;54.20;71158.13;5053166;28;20568;-79
2023/08/18 02:40:54;;;;;;;8.02;5.57;;;;;;;-143.21;54.59;71166.06;5064845;28;20209;-79
2023/08/18 02:43:22;;;;;;;12.13;6.10;;;;;;;-143.21;54.54;71177.97;5058197;28;20210;-79
2023/08/18 02:45:49;;;;;;;11.55;5.88;;;;;;;-143.21;54.41;71170.03;5054905;28;20229;-79
2023/08/18 02:48:16;;;;;;;8.48;5.75;;;;;;;-143.21;54.90;71177.97;5056665;28;20208;-79
2023/08/18 02:50:45;;;;;;;7.88;5.80;;;;;;;-143.21;54.72;71183.91;5056795;28;20210;-79
2023/08/18 02:53:13;;;;;;;7.13;5.85;;;;;;;-143.21;54.66;71179.94;5061218;28;20377;-79
2023/08/18 02:55:40;;;;;;;12.13;5.97;;;;;;;-143.21;54.56;71170.03;5061421;28;20201;-78
2023/08/18 02:58:07;;;;;;;8.75;5.10;;;;;;;-143.21;54.70;71166.06;5054306;28;20261;-78
2023/08/18 03:00:36;;;;;;;11.40;5.80;;;;;;;-143.21;54.46;71164.09;5057899;28;20225;-78
2023/08/18 03:03:03;;;;;;;8.65;5.60;;;;;;;-143.21;54.30;71166.06;5063456;28;20193;-78
2023/08/18 03:05:29;;;;;;;10.40;5.45;;;;;;;-143.21;54.55;71183.91;5059247;28;20259;-79
2023/08/18 03:07:58;;;;;;;9.63;5.10;;;;;;;-143.21;54.72;71203.72;5057959;28;20202;-79
2023/08/18 03:10:24;;;;;;;12.65;6.00;;;;;;;-143.21;55.03;71215.63;5055587;28;20201;-80
2023/08/18 03:12:51;;;;;;;9.88;5.82;;;;;;;-143.21;55.03;71213.66;5058921;28;20201;-79
2023/08/18 03:15:18;;;;;;;6.72;5.47;;;;;;;-143.21;54.92;71217.59;5060360;28;20209;-79
2023/08/18 03:17:45;;;;;;;8.07;5.70;;;;;;;-143.21;55.22;71221.56;5062033;28;20674;-79
2023/08/18 03:20:12;;;;;;;7.70;5.57;;;;;;;-143.21;55.35;71223.56;5058137;28;20214;-79
2023/08/18 03:22:39;;;;;;;11.35;5.95;;;;;;;-143.21;55.37;71227.53;5054493;28;20202;-79
2023/08/18 03:25:09;;;;;;;7.47;5.68;;;;;;;-143.21;55.32;71227.53;5059585;28;20220;-79
2023/08/18 03:27:35;;;;;;;8.93;5.60;;;;;;;-143.21;55.43;71229.50;5055940;28;20213;-79
2023/08/18 03:30:04;;;;;;;13.52;5.72;;;;;;;-143.21;55.46;71227.53;5056646;28;20759;-78
2023/08/18 03:32:32;;;;;;;9.80;5.90;;;;;;;-143.21;55.65;71221.56;5062135;28;20205;-78
2023/08/18 03:34:58;;;;;;;9.38;6.25;;;;;;;-143.21;55.84;71219.59;5053804;28;20288;-78
2023/08/18 03:37:25;;;;;;;10.45;5.50;;;;;;;-143.21;56.08;71227.53;5055311;28;20209;-79
2023/08/18 03:39:53;;;;;;;11.40;5.57;;;;;;;-143.21;55.77;71225.53;5059630;28;20213;-78
2023/08/18 03:42:26;;;;;;;12.02;6.00;;;;;;;-143.21;55.90;71229.50;5056771;28;20201;-80
2023/08/18 03:44:52;;;;;;;6.90;6.00;;;;;;;-143.21;55.67;71229.50;5057947;28;20660;-79
2023/08/18 03:47:19;;;;;;;13.57;6.32;;;;;;;-143.21;55.82;71233.47;5056532;28;20228;-79
2023/08/18 03:49:46;;;;;;;8.07;5.78;;;;;;;-143.21;55.84;71239.41;5057600;28;20202;-79
2023/08/18 03:52:13;;;;;;;11.85;6.35;;;;;;;-143.21;56.30;71237.44;5061677;28;20213;-85
2023/08/18 03:54:40;;;;;;;8.52;6.22;;;;;;;-143.21;56.17;71237.44;5056675;28;20225;-85
2023/08/18 03:57:06;;;;;;;8.57;5.70;;;;;;;-143.21;56.84;71241.41;5065743;28;20240;-84
2023/08/18 03:59:35;;;;;;;12.15;6.32;;;;;;;-143.21;56.78;71249.34;5064780;28;20213;-84
2023/08/18 04:02:01;;;;;;;9.18;6.60;;;;;;;-143.21;57.01;71249.34;5065112;28;20200;-84
2023/08/18 04:04:28;;;;;;;12.88;6.30;;;;;;;-143.21;57.02;71253.28;5066813;28;20209;-84
2023/08/18 04:06:55;;;;;;;9.25;6.45;;;;;;;-143.21;57.21;71255.28;5059834;28;20230;-84
2023/08/18 04:09:22;;;;;;;11.60;6.20;;;;;;;-143.21;57.52;71255.28;5066782;28;20294;-84
2023/08/18 04:11:49;;;;;;;7.63;5.82;;;;;;;-143.21;57.11;71243.38;5065121;28;20266;-83
2023/08/18 04:14:16;;;;;;;8.63;6.22;;;;;;;-143.21;57.15;71235.44;5064366;28;20204;-84
2023/08/18 04:16:45;;;;;;;11.15;6.28;;;;;;;-143.21;57.11;71229.50;5059802;28;20268;-85
2023/08/18 04:19:12;;;;;;;8.80;6.20;;;;;;;-143.21;56.95;71233.47;5061194;28;20206;-83
2023/08/18 04:21:39;;;;;;;9.40;6.65;;;;;;;-143.21;57.09;71233.47;5072371;28;20206;-86
2023/08/18 04:24:06;;;;;;;9.50;6.43;;;;;;;-143.21;57.31;71237.44;5063598;28;20921;-85
2023/08/18 04:26:35;;;;;;;9.55;6.50;;;;;;;-143.21;57.50;71243.38;5052673;28;20237;-83
2023/08/18 04:29:02;;;;;;;9.30;6.15;;;;;;;-143.21;57.84;71249.34;5066854;28;20596;-83
2023/08/18 04:31:29;;;;;;;10.60;6.40;;;;;;;-143.21;57.74;71245.38;5061465;28;20214;-83
2023/08/18 04:33:57;;;;;;;9.95;7.05;;;;;;;-143.21;58.03;71249.34;5059692;28;20212;-82
2023/08/18 04:36:24;;;;;;;10.77;6.75;;;;;;;-143.21;58.03;71249.34;5063356;28;20267;-87
2023/08/18 04:38:51;;;;;;;15.25;6.82;;;;;;;-143.21;58.03;71249.34;5058706;28;20285;-85
2023/08/18 04:41:18;;;;;;;8.50;6.53;;;;;;;-143.21;58.03;71251.31;5062612;28;20263;-79
2023/08/18 04:43:45;;;;;;;9.32;6.65;;;;;;;-143.21;58.24;71253.28;5060166;28;20966;-77
2023/08/18 04:46:11;;;;;;;12.68;6.53;;;;;;;-143.21;58.13;71257.25;5060368;28;20224;-78
2023/08/18 04:48:38;;;;;;;7.50;6.32;;;;;;;-143.21;58.08;71255.28;5063016;28;20213;-77
2023/08/18 04:51:06;;;;;;;15.85;6.97;;;;;;;-143.21;58.11;71253.28;5064977;28;20209;-77
2023/08/18 04:53:33;;;;;;;13.98;7.10;;;;;;;-143.21;58.31;71253.28;5057228;28;20229;-78
2023/08/18 04:56:02;;;;;;;16.05;8.07;;;;;;;-143.21;58.46;71251.31;5061904;28;20202;-78
2023/08/18 04:58:29;;;;;;;10.95;7.70;;;;;;;-143.21;58.42;71259.25;5067016;28;20209;-78
2023/08/18 05:00:58;;;;;;;8.25;6.45;;;;;;;-143.21;58.39;71253.28;5066816;28;20209;-78
2023/08/18 05:03:25;;;;;;;9.90;6.93;;;;;;;-143.21;58.64;71265.19;5060708;28;20210;-78
2023/08/18 05:06:00;;;;;;;10.48;6.25;;;;;;;-143.21;58.39;71265.19;5063142;28;20228;-77
2023/08/18 05:08:28;;;;;;;12.43;6.80;;;;;;;-143.21;58.55;71269.16;5067277;28;20379;-77
2023/08/18 05:10:57;;;;;;;11.65;6.90;;;;;;;-143.21;58.89;71265.19;5062181;28;20201;-80
2023/08/18 05:13:24;;;;;;;9.32;6.53;;;;;;;-143.21;58.63;71265.19;5057032;28;20753;-77
2023/08/18 05:15:52;;;;;;;14.73;6.80;;;;;;;-143.21;58.89;71269.16;5065814;28;20217;-77
2023/08/18 05:18:20;;;;;;;10.40;6.70;;;;;;;-143.21;58.79;71267.19;5059130;28;20610;-78
2023/08/18 05:20:47;;;;;;;16.95;7.05;;;;;;;-143.21;59.15;71273.13;5062691;28;20242;-78
2023/08/18 05:23:16;;;;;;;11.43;6.80;;;;;;;-143.21;58.93;71273.13;5062875;28;20208;-79
2023/08/18 05:25:44;;;;;;;10.48;6.90;;;;;;;-143.21;58.96;71273.13;5057489;28;20217;-79
2023/08/18 05:28:11;;;;;;;10.32;6.55;;;;;;;-143.21;58.88;71269.16;5063923;28;21459;-79
2023/08/18 05:30:38;;;;;;;18.60;6.78;;;;;;;-143.21;59.00;71261.22;5061509;28;20912;-79
2023/08/18 05:33:05;;;;;;;14.35;6.90;;;;;;;-143.21;58.82;71265.19;5056918;28;20220;-79
2023/08/18 05:35:32;;;;;;;9.00;6.68;;;;;;;-143.21;58.94;71267.19;5054898;28;20572;-79
2023/08/18 05:37:59;;;;;;;10.27;6.47;;;;;;;-143.21;58.24;71235.44;5054447;28;20642;-79
2023/08/18 05:40:26;;;;;;;10.25;6.35;;;;;;;-143.21;57.71;71215.63;5060015;28;20228;-79
2023/08/18 05:42:54;;;;;;;10.18;6.63;;;;;;;-143.21;57.07;71205.72;5060496;28;20644;-82
2023/08/18 05:45:21;;;;;;;12.63;6.45;;;;;;;-143.21;57.37;71207.69;5066326;28;20702;-82
2023/08/18 05:47:48;;;;;;;7.72;6.03;;;;;;;-143.21;57.20;71205.72;5058569;28;20669;-82
2023/08/18 05:50:15;;;;;;;10.70;6.18;;;;;;;-143.21;57.27;71207.69;5065057;28;20205;-81
2023/08/18 05:52:41;;;;;;;10.27;6.25;;;;;;;-143.21;57.41;71213.66;5062467;28;20201;-81
2023/08/18 05:55:09;;;;;;;12.52;6.43;;;;;;;-143.21;57.01;71213.66;5056187;28;20245;-82
2023/08/18 05:57:38;;;;;;;10.88;6.47;;;;;;;-143.21;56.99;71209.69;5066977;28;20214;-81
2023/08/18 06:00:10;;;;;;;8.20;6.05;;;;;;;-143.21;56.98;71209.69;5065686;28;20209;-81
2023/08/18 06:02:37;;;;;;;14.57;6.38;;;;;;;-143.21;57.06;71197.78;5056037;28;20206;-82
2023/08/18 06:05:04;;;;;;;10.00;6.53;;;;;;;-143.21;56.20;71177.97;5061918;28;20255;-80
2023/08/18 06:07:31;;;;;;;7.88;6.38;;;;;;;-143.21;56.34;71166.06;5067544;28;20716;-81
2023/08/18 06:09:58;;;;;;;12.75;6.60;;;;;;;-143.21;56.01;71164.09;5061187;28;20202;-82
2023/08/18 06:12:25;;;;;;;10.02;7.05;;;;;;;-143.21;56.03;71168.06;5064441;28;20202;-80
2023/08/18 06:14:51;;;;;;;13.32;6.70;;;;;;;-143.21;56.57;71168.06;5060924;28;20220;-82
2023/08/18 06:17:20;;;;;;;10.90;6.60;;;;;;;-143.21;56.27;71172.00;5061985;28;20201;-82
2023/08/18 06:19:46;;;;;;;10.75;6.10;;;;;;;-143.21;55.67;71168.06;5053079;28;20202;-81
2023/08/18 06:22:13;;;;;;;10.77;6.60;;;;;;;-143.21;55.60;71170.03;5064069;28;20212;-82
2023/08/18 06:24:40;;;;;;;10.20;6.47;;;;;;;-143.21;55.96;71168.06;5059053;28;20194;-79
2023/08/18 06:27:07;;;;;;;14.73;6.30;;;;;;;-143.21;55.72;71160.13;5057314;28;20236;-80
2023/08/18 06:29:34;;;;;;;9.95;6.75;;;;;;;-143.21;55.43;71134.34;5062636;28;20588;-80
2023/08/18 06:32:01;;;;;;;10.00;5.95;;;;;;;-143.21;54.48;71108.56;5063394;28;20212;-80
2023/08/18 06:34:29;;;;;;;14.63;6.28;;;;;;;-143.21;54.51;71096.69;5065317;28;20208;-76
2023/08/18 06:36:55;;;;;;;12.15;6.45;;;;;;;-143.21;54.51;71096.69;5058769;28;20206;-76
2023/08/18 06:39:22;;;;;;;9.82;6.47;;;;;;;-143.21;54.50;71106.59;5060783;28;20205;-76
2023/08/18 06:41:49;;;;;;;10.95;6.13;;;;;;;-143.21;54.75;71106.59;5059992;28;20201;-77
2023/08/18 06:44:16;;;;;;;11.90;6.55;;;;;;;-143.21;54.19;71112.53;5055809;28;20213;-77
2023/08/18 06:46:43;;;;;;;13.70;5.60;;;;;;;-143.21;54.37;71116.50;5065256;28;20237;-76
2023/08/18 06:49:09;;;;;;;18.38;6.32;;;;;;;-143.21;54.37;71102.63;5064698;28;20216;-77
2023/08/18 06:51:38;;;;;;;16.58;6.55;;;;;;;-143.21;54.35;71098.66;5058459;28;20214;-76
2023/08/18 06:54:05;;;;;;;14.85;6.20;;;;;;;-143.21;54.33;71084.78;5062688;28;20267;-78
2023/08/18 06:56:32;;;;;;;11.23;6.50;;;;;;;-143.21;52.86;71047.13;5054989;28;20212;-77
2023/08/18 06:58:59;;;;;;;13.48;6.60;;;;;;;-143.21;52.12;71023.34;5055725;28;20653;-77
2023/08/18 07:01:26;;;;;;;13.32;5.72;;;;;;;-143.21;51.66;71031.25;5060918;28;20577;-77
2023/08/18 07:03:54;;;;;;;15.50;5.90;;;;;;;-143.21;52.09;71035.22;5061860;28;20202;-77
2023/08/18 07:06:21;;;;;;;16.65;6.20;;;;;;;-143.21;52.07;71033.25;5055594;28;20641;-77
2023/08/18 07:08:49;;;;;;;9.40;5.60;;;;;;;-143.21;52.07;71031.25;5063530;28;20208;-76
2023/08/18 07:11:16;;;;;;;13.07;5.78;;;;;;;-143.21;52.09;71025.31;5054969;28;20205;-76
2023/08/18 07:13:43;;;;;;;13.77;6.15;;;;;;;-143.21;51.78;71019.38;5064910;28;20212;-77
2023/08/18 07:16:10;;;;;;;10.93;6.03;;;;;;;-143.21;51.68;71007.47;5051080;28;20263;-77
2023/08/18 07:18:37;;;;;;;10.45;5.68;;;;;;;-143.21;51.20;70975.75;5058086;28;20687;-76
2023/08/18 07:21:04;;;;;;;9.15;5.50;;;;;;;-143.21;50.75;70953.94;5053540;28;20221;-76
2023/08/18 07:23:30;;;;;;;8.60;5.95;;;;;;;-143.21;50.60;70932.13;5056528;28;20270;-76
2023/08/18 07:25:59;;;;;;;9.10;5.90;;;;;;;-143.21;50.10;70928.19;5059347;28;20279;-76
2023/08/18 07:28:28;;;;;;;9.25;5.57;;;;;;;-143.21;49.87;70920.25;5062060;28;20308;-78
2023/08/18 07:30:54;;;;;;;8.65;4.45;;;;;;;-143.21;52.83;70916.28;5062060;28;20197;-78
2023/08/18 07:33:21;;;;;;;8.05;5.20;;;;;;;-143.21;51.17;70924.22;5061174;28;20209;-78
2023/08/18 07:35:48;;;;;;;9.23;5.50;;;;;;;-143.21;49.26;70916.28;5061418;28;20661;-79
2023/08/18 07:38:15;;;;;;;9.90;4.78;;;;;;;-143.21;49.41;70932.13;5057661;28;20219;-79
2023/08/18 07:40:42;;;;;;;10.02;5.65;;;;;;;-143.21;49.07;70928.19;5064084;28;20206;-79
2023/08/18 07:43:11;;;;;;;7.03;4.75;;;;;;;-143.21;49.40;70936.09;5058011;28;20603;-79
2023/08/18 07:45:37;;;;;;;10.48;5.35;;;;;;;-143.21;49.57;70953.94;5060600;28;20255;-91
2023/08/18 07:48:05;;;;;;;7.45;5.18;;;;;;;-143.21;49.64;70942.06;5061637;28;20244;-89
2023/08/18 07:50:32;;;;;;;9.77;5.32;;;;;;;-143.21;49.45;70938.09;5063551;28;20295;-89
2023/08/18 07:52:59;;;;;;;7.32;5.60;;;;;;;-143.21;49.59;70920.25;5061794;28;20182;-86
2023/08/18 07:55:26;;;;;;;8.38;5.25;;;;;;;-143.21;49.00;70912.31;5052201;28;20368;-88
2023/08/18 07:57:53;;;;;;;6.75;5.30;;;;;;;-143.21;49.09;70918.25;5057838;28;20255;-88
2023/08/18 08:00:21;;;;;;;7.68;5.72;;;;;;;-143.21;49.32;70930.16;5066080;28;20197;-87
2023/08/18 08:02:49;;;;;;;11.80;5.38;;;;;;;-143.21;49.29;70928.19;5070242;28;20212;-87
2023/08/18 08:05:19;;;;;;;8.48;5.70;;;;;;;-143.21;48.98;70922.22;5071149;28;20202;-88
2023/08/18 08:07:46;;;;;;;8.20;5.40;;;;;;;-143.21;49.19;70926.19;5066522;28;20241;-87
2023/08/18 08:10:13;;;;;;;6.82;4.68;;;;;;;-143.21;48.71;70912.31;5059545;28;20652;-87
2023/08/18 08:12:43;;;;;;;8.30;5.30;;;;;;;-143.21;47.99;70910.34;5062626;28;20217;-88
2023/08/18 08:15:12;;;;;;;8.75;5.25;;;;;;;-143.21;47.36;70914.31;5059997;28;20212;-77
2023/08/18 08:17:40;;;;;;;9.00;4.80;;;;;;;-143.21;47.61;70912.31;5053428;28;21767;-78
2023/08/18 08:20:15;;;;;;;8.20;4.93;;;;;;;-143.21;47.93;70904.38;5061618;28;20210;-78
2023/08/18 08:22:42;;;;;;;8.00;5.30;;;;;;;-143.21;47.23;70882.59;5063096;28;20212;-78
2023/08/18 08:25:10;;;;;;;10.10;5.28;;;;;;;-143.21;47.13;70866.72;5064125;28;20197;-79
2023/08/18 08:27:37;;;;;;;9.45;5.30;;;;;;;-143.21;47.23;70852.84;5057720;28;20229;-79
2023/08/18 08:30:04;;;;;;;9.18;5.13;;;;;;;-143.21;47.03;70837.00;5061981;28;20219;-82
2023/08/18 08:32:31;;;;;;;9.88;5.63;;;;;;;-143.21;47.77;70823.13;5057100;28;20594;-80
2023/08/18 08:34:59;;;;;;;14.52;5.60;;;;;;;-143.21;47.51;70805.28;5057413;28;20205;-78
2023/08/18 08:37:26;;;;;;;13.63;5.43;;;;;;;-143.21;46.72;70787.44;5054650;28;20205;-76
2023/08/18 08:39:53;;;;;;;9.27;4.47;;;;;;;-143.21;45.30;70769.59;5063577;28;20201;-77
2023/08/18 08:42:20;;;;;;;6.78;4.75;;;;;;;-143.21;44.55;70739.84;5062695;28;20194;-78
2023/08/18 08:44:47;;;;;;;9.85;4.57;;;;;;;-143.21;44.06;70716.06;5056033;28;20217;-78
2023/08/18 08:47:15;;;;;;;8.93;4.90;;;;;;;-143.21;43.33;70698.22;5066940;28;20633;-79
2023/08/18 08:49:44;;;;;;;10.23;4.70;;;;;;;-143.21;42.70;70688.31;5061246;28;20201;-78
2023/08/18 08:52:13;;;;;;;8.77;3.95;;;;;;;-143.21;41.23;70662.56;5056908;28;20284;-78
2023/08/18 08:54:49;;;;;;;7.10;3.95;;;;;;;-143.21;41.19;70646.69;5067503;28;20286;-79
2023/08/18 08:57:18;;;;;;;6.20;3.83;;;;;;;-143.21;41.02;70616.97;5060586;28;20198;-89
2023/08/18 08:59:45;;;;;;;6.00;4.10;;;;;;;-143.21;40.99;70603.09;5061081;28;20425;-87
2023/08/18 09:02:13;;;;;;;9.98;3.92;;;;;;;-143.21;40.43;70605.06;5067335;28;20204;-90
2023/08/18 09:04:40;;;;;;;6.07;3.80;;;;;;;-143.21;40.31;70605.06;5065770;28;20591;-87
2023/08/18 09:07:07;;;;;;;8.18;3.97;;;;;;;-143.21;39.81;70585.25;5066688;28;20604;-85
2023/08/18 09:09:35;;;;;;;8.82;4.32;;;;;;;-143.21;40.18;70585.25;5061615;28;20205;-85
2023/08/18 09:12:06;;;;;;;6.45;3.95;;;;;;;-143.21;39.98;70563.44;5057499;28;20202;-79
2023/08/18 09:14:34;;;;;;;7.70;4.07;;;;;;;-143.21;39.50;70553.53;5063758;28;20603;-79
2023/08/18 09:17:02;;;;;;;4.47;3.40;;;;;;;-143.21;39.29;70535.69;5067207;28;20290;-79
2023/08/18 09:19:29;;;;;;;8.50;3.90;;;;;;;-143.21;38.88;70529.75;5065573;28;20209;-80
2023/08/18 09:21:58;;;;;;;8.57;3.63;;;;;;;-143.21;39.27;70519.84;5060369;28;20426;-80
2023/08/18 09:24:26;;;;;;;7.07;3.63;;;;;;;-143.21;39.07;70525.78;5059124;28;20663;-85
2023/08/18 09:26:54;;;;;;;8.77;4.10;;;;;;;-143.21;38.94;70531.72;5061273;28;20798;-86
2023/08/18 09:29:21;;;;;;;11.18;3.95;;;;;;;-143.21;39.03;70543.63;5068521;28;20206;-85
2023/08/18 09:31:48;;;;;;;11.25;4.30;;;;;;;-143.21;38.76;70531.72;5067244;28;20209;-84
2023/08/18 09:34:21;;;;;;;11.32;3.90;;;;;;;-143.21;38.36;70531.72;5059716;28;20205;-87
2023/08/18 09:36:55;;;;;;;10.13;4.20;;;;;;;-143.21;38.75;70519.84;5059465;28;20259;-86
2023/08/18 09:39:25;;;;;;;10.38;4.05;;;;;;;-143.21;38.54;70505.97;5064470;28;20216;-88
2023/08/18 09:41:52;;;;;;;8.02;4.30;;;;;;;-143.21;38.08;70486.16;5063386;28;20280;-87
2023/08/18 09:44:23;;;;;;;8.00;3.92;;;;;;;-143.21;37.98;70470.28;5060460;28;20205;-88
2023/08/18 09:46:54;;;;;;;8.93;4.22;;;;;;;-143.21;37.85;70464.34;5060492;28;20279;-85
2023/08/18 09:49:22;;;;;;;7.75;3.53;;;;;;;-143.21;37.70;70468.31;5063938;28;20210;-87
2023/08/18 09:51:52;;;;;;;8.55;4.28;;;;;;;-143.21;37.56;70476.22;5063003;28;20202;-91
2023/08/18 09:54:21;;;;;;;8.82;4.18;;;;;;;-143.21;38.00;70482.19;5058068;28;20264;-89
2023/08/18 09:57:00;;;;;;;8.35;3.72;;;;;;;-143.21;37.99;70466.31;5061711;28;20212;-86
2023/08/18 09:59:42;;;;;;;6.55;3.63;;;;;;;-143.21;37.87;70432.63;5059270;28;20203;-87
2023/08/18 10:02:15;;;;;;;4.38;3.97;;;;;;;-143.21;37.58;70412.81;5063871;28;20209;-86
2023/08/18 10:04:43;;;;;;;8.20;3.80;;;;;;;-143.21;37.18;70416.78;5063010;28;20673;-87
2023/08/18 10:07:16;;;;;;;9.85;3.80;;;;;;;-143.21;37.03;70422.72;5067376;28;20205;-88
2023/08/18 10:09:53;;;;;;;7.05;3.85;;;;;;;-143.21;37.34;70412.81;5056717;28;20640;-86
2023/08/18 10:12:21;;;;;;;7.25;3.90;;;;;;;-143.21;37.20;70404.88;5060378;28;20198;-89
2023/08/18 10:14:52;;;;;;;6.05;3.50;;;;;;;-143.21;36.85;70377.13;5062622;28;20220;-89
2023/08/18 10:17:23;;;;;;;8.73;4.40;;;;;;;-143.21;36.94;70355.31;5062904;28;20197;-89
2023/08/18 10:19:54;;;;;;;8.13;3.90;;;;;;;-143.21;36.49;70353.34;5061464;28;20229;-87
2023/08/18 10:22:25;;;;;;;8.80;4.45;;;;;;;-143.21;36.43;70345.41;5064334;28;20208;-88
2023/08/18 10:24:54;;;;;;;6.63;3.75;;;;;;;-143.21;36.53;70317.66;5059701;28;20255;-87
2023/08/18 10:27:40;;;;;;;5.15;3.50;;;;;;;-143.21;35.69;70299.84;5058244;28;20251;-85
2023/08/18 10:30:31;;;;;;;5.65;3.90;;;;;;;-143.21;35.37;70293.88;5067944;28;20259;-87
2023/08/18 10:33:06;;;;;;;7.05;3.90;;;;;;;-143.21;35.75;70295.88;5057966;28;20210;-88
2023/08/18 10:35:39;;;;;;;11.27;3.92;;;;;;;-143.21;36.04;70270.09;5060005;28;20235;-86
2023/08/18 10:38:06;;;;;;;8.40;3.88;;;;;;;-143.21;35.52;70266.13;5059874;28;20201;-87
2023/08/18 10:40:34;;;;;;;6.10;4.00;;;;;;;-143.21;35.29;70244.34;5061888;28;20209;-85
2023/08/18 10:43:04;;;;;;;9.23;3.90;;;;;;;-143.21;35.43;70230.47;5062416;28;20259;-84
2023/08/18 10:45:33;;;;;;;7.78;3.90;;;;;;;-143.21;34.77;70188.84;5056921;28;20201;-86
2023/08/18 10:48:03;;;;;;;5.10;3.88;;;;;;;-143.21;34.27;70159.13;5063565;28;20588;-84
2023/08/18 10:50:31;;;;;;;5.35;3.70;;;;;;;-143.21;34.34;70145.25;5060293;28;20201;-84
2023/08/18 10:52:59;;;;;;;5.82;3.70;;;;;;;-143.21;34.17;70139.28;5063055;28;20700;-87
2023/08/18 10:55:27;;;;;;;5.88;3.90;;;;;;;-143.21;33.48;70101.63;5064456;28;20719;-86
2023/08/18 10:57:53;;;;;;;6.57;3.60;;;;;;;-143.21;33.83;70079.84;5059192;28;20208;-87
2023/08/18 11:00:21;;;;;;;7.50;3.90;;;;;;;-143.21;33.33;70060.03;5060016;28;20202;-88
2023/08/18 11:02:51;;;;;;;8.73;4.00;;;;;;;-143.21;32.87;70065.97;5066081;28;20263;-87
2023/08/18 11:05:18;;;;;;;6.47;3.60;;;;;;;-143.21;33.01;70065.97;5057784;28;20197;-79
2023/08/18 11:07:45;;;;;;;7.43;3.60;;;;;;;-143.21;32.97;70032.28;5057353;28;20237;-79
2023/08/18 11:10:18;;;;;;;7.63;3.83;;;;;;;-143.21;33.06;70020.38;5060065;28;20197;-78
2023/08/18 11:12:45;;;;;;;7.45;4.00;;;;;;;-143.21;33.16;69992.63;5056736;28;20202;-80
2023/08/18 11:15:13;;;;;;;8.25;4.07;;;;;;;-143.21;32.43;69954.97;5058463;28;20187;-80
2023/08/18 11:17:40;;;;;;;8.27;4.13;;;;;;;-143.21;32.39;69925.25;5067043;28;20580;-80